sensor_id;sensor_type;location;lat;lon;timestamp;pressure;altitude;pressure_sealevel;temperature;humidity
10796;BME280;5450;42.994;23.372;2023-04-08T00:05:07;96417.03;;;3.77;100.00
10796;BME280;5450;42.994;23.372;2023-04-08T00:10:55;96426.91;;;3.63;100.00
10796;BME280;5450;42.994;23.372;2023-04-08T00:27:16;96472.28;;;3.91;100.00
10796;BME280;5450;42.994;23.372;2023-04-08T00:29:57;96379.75;;;3.25;100.00
10796;BME280;5450;42.994;23.372;2023-04-08T00:36:23;96523.56;;;4.31;100.00
10796;BME280;5450;42.994;23.372;2023-04-08T00:53:12;96519.84;;;4.13;100.00
10796;BME280;5450;42.994;23.372;2023-04-08T01:02:54;96447.97;;;3.38;100.00
10796;BME280;5450;42.994;23.372;2023-04-08T01:12:32;96492.81;;;3.51;100.00
10796;BME280;5450;42.994;23.372;2023-04-08T01:18:37;96372.97;;;2.79;100.00
10796;BME280;5450;42.994;23.372;2023-04-08T01:32:15;96508.09;;;3.87;100.00
10796;BME280;5450;42.994;23.372;2023-04-08T01:35:09;96512.25;;;3.90;100.00
10796;BME280;5450;42.994;23.372;2023-04-08T01:38:01;96504.66;;;3.98;100.00
10796;BME280;5450;42.994;23.372;2023-04-08T01:40:29;96538.09;;;4.02;100.00
10796;BME280;5450;42.994;23.372;2023-04-08T01:42:58;96458.31;;;3.49;100.00
10796;BME280;5450;42.994;23.372;2023-04-08T01:49:03;96516.78;;;4.08;100.00
10796;BME280;5450;42.994;23.372;2023-04-08T02:05:23;96521.66;;;4.02;100.00
10796;BME280;5450;42.994;23.372;2023-04-08T02:42:52;96557.06;;;4.14;100.00
10796;BME280;5450;42.994;23.372;2023-04-08T02:52:15;96534.28;;;4.06;100.00
10796;BME280;5450;42.994;23.372;2023-04-08T02:54:42;96496.81;;;3.66;100.00
10796;BME280;5450;42.994;23.372;2023-04-08T03:04:13;96552.50;;;3.95;100.00
10796;BME280;5450;42.994;23.372;2023-04-08T03:06:41;96411.03;;;3.23;100.00
10796;BME280;5450;42.994;23.372;2023-04-08T03:09:34;96568.91;;;4.18;100.00
10796;BME280;5450;42.994;23.372;2023-04-08T03:26:27;96548.47;;;4.02;100.00
10796;BME280;5450;42.994;23.372;2023-04-08T03:32:35;96551.69;;;3.83;100.00
10796;BME280;5450;42.994;23.372;2023-04-08T03:35:02;96555.38;;;3.81;100.00
10796;BME280;5450;42.994;23.372;2023-04-08T03:41:37;96556.06;;;3.94;100.00
10796;BME280;5450;42.994;23.372;2023-04-08T03:44:05;96567.16;;;3.96;100.00
10796;BME280;5450;42.994;23.372;2023-04-08T03:57:59;96567.63;;;4.01;100.00
10796;BME280;5450;42.994;23.372;2023-04-08T04:00:27;96543.31;;;3.80;100.00
10796;BME280;5450;42.994;23.372;2023-04-08T04:06:34;96591.00;;;4.12;100.00
10796;BME280;5450;42.994;23.372;2023-04-08T04:12:42;96537.38;;;4.00;100.00
10796;BME280;5450;42.994;23.372;2023-04-08T04:15:12;96583.06;;;4.14;100.00
10796;BME280;5450;42.994;23.372;2023-04-08T04:21:19;96534.19;;;3.97;100.00
10796;BME280;5450;42.994;23.372;2023-04-08T04:24:11;96564.97;;;4.23;100.00
10796;BME280;5450;42.994;23.372;2023-04-08T04:33:40;96553.41;;;4.16;100.00
10796;BME280;5450;42.994;23.372;2023-04-08T04:46:53;96576.31;;;4.22;100.00
10796;BME280;5450;42.994;23.372;2023-04-08T04:49:22;96440.78;;;3.19;100.00
10796;BME280;5450;42.994;23.372;2023-04-08T04:51:50;96526.03;;;3.90;100.00
10796;BME280;5450;42.994;23.372;2023-04-08T05:01:20;96579.03;;;4.21;100.00
10796;BME280;5450;42.994;23.372;2023-04-08T05:04:11;96573.50;;;4.14;100.00
10796;BME280;5450;42.994;23.372;2023-04-08T05:06:40;96585.56;;;4.15;100.00
10796;BME280;5450;42.994;23.372;2023-04-08T05:09:07;96592.16;;;4.19;100.00
10796;BME280;5450;42.994;23.372;2023-04-08T05:15:15;96514.03;;;3.78;100.00
10796;BME280;5450;42.994;23.372;2023-04-08T05:21:22;96579.66;;;4.24;100.00
10796;BME280;5450;42.994;23.372;2023-04-08T05:30:49;96586.47;;;4.36;100.00
10796;BME280;5450;42.994;23.372;2023-04-08T05:36:56;96554.34;;;4.26;100.00
10796;BME280;5450;42.994;23.372;2023-04-08T05:39:26;96574.84;;;4.40;100.00
10796;BME280;5450;42.994;23.372;2023-04-08T05:45:34;96590.56;;;4.50;100.00
10796;BME280;5450;42.994;23.372;2023-04-08T05:48:05;96438.47;;;3.70;100.00
10796;BME280;5450;42.994;23.372;2023-04-08T06:01:34;96528.50;;;4.45;100.00
10796;BME280;5450;42.994;23.372;2023-04-08T06:04:03;96577.06;;;4.77;100.00
10796;BME280;5450;42.994;23.372;2023-04-08T06:06:33;96553.88;;;4.85;100.00
10796;BME280;5450;42.994;23.372;2023-04-08T06:09:00;96566.56;;;4.99;100.00
10796;BME280;5450;42.994;23.372;2023-04-08T06:15:08;96562.25;;;5.09;100.00
10796;BME280;5450;42.994;23.372;2023-04-08T06:36:04;96550.38;;;5.46;100.00
10796;BME280;5450;42.994;23.372;2023-04-08T06:38:34;96523.91;;;5.20;100.00
10796;BME280;5450;42.994;23.372;2023-04-08T06:44:43;96521.97;;;5.73;100.00
10796;BME280;5450;42.994;23.372;2023-04-08T06:47:10;96565.16;;;5.96;100.00
10796;BME280;5450;42.994;23.372;2023-04-08T06:50:02;96554.06;;;6.13;100.00
10796;BME280;5450;42.994;23.372;2023-04-08T06:56:11;96393.44;;;5.33;100.00
10796;BME280;5450;42.994;23.372;2023-04-08T07:02:43;96553.28;;;6.42;100.00
10796;BME280;5450;42.994;23.372;2023-04-08T07:05:10;96578.16;;;6.46;100.00
10796;BME280;5450;42.994;23.372;2023-04-08T07:11:20;96601.53;;;6.57;100.00
10796;BME280;5450;42.994;23.372;2023-04-08T07:31:27;96426.94;;;5.96;100.00
10796;BME280;5450;42.994;23.372;2023-04-08T07:33:58;96465.00;;;6.28;100.00
10796;BME280;5450;42.994;23.372;2023-04-08T07:40:30;96563.56;;;7.29;100.00
10796;BME280;5450;42.994;23.372;2023-04-08T07:54:00;96585.91;;;7.97;100.00
10796;BME280;5450;42.994;23.372;2023-04-08T08:00:08;96582.47;;;8.24;100.00
10796;BME280;5450;42.994;23.372;2023-04-08T08:02:35;96545.63;;;8.08;100.00
10796;BME280;5450;42.994;23.372;2023-04-08T08:05:27;96588.22;;;8.37;100.00
10796;BME280;5450;42.994;23.372;2023-04-08T08:15:16;96558.06;;;8.33;100.00
10796;BME280;5450;42.994;23.372;2023-04-08T08:21:24;96581.53;;;8.87;100.00
10796;BME280;5450;42.994;23.372;2023-04-08T08:23:52;96547.84;;;8.57;100.00
10796;BME280;5450;42.994;23.372;2023-04-08T08:30:02;96552.34;;;8.82;100.00
10796;BME280;5450;42.994;23.372;2023-04-08T08:39:54;96606.81;;;9.32;100.00
10796;BME280;5450;42.994;23.372;2023-04-08T08:49:47;96577.84;;;9.59;100.00
10796;BME280;5450;42.994;23.372;2023-04-08T09:06:37;96612.50;;;9.96;97.99
10796;BME280;5450;42.994;23.372;2023-04-08T09:09:06;96558.06;;;9.72;96.18
10796;BME280;5450;42.994;23.372;2023-04-08T09:11:38;96507.06;;;9.41;95.37
10796;BME280;5450;42.994;23.372;2023-04-08T09:14:09;96600.66;;;10.18;98.77
10796;BME280;5450;42.994;23.372;2023-04-08T09:16:42;96567.28;;;10.10;94.78
10796;BME280;5450;42.994;23.372;2023-04-08T09:29:50;96495.06;;;10.06;92.99
10796;BME280;5450;42.994;23.372;2023-04-08T09:35:41;96601.69;;;10.99;90.54
10796;BME280;5450;42.994;23.372;2023-04-08T09:38:09;96506.69;;;10.61;92.99
10796;BME280;5450;42.994;23.372;2023-04-08T09:41:01;96579.03;;;11.14;92.45
10796;BME280;5450;42.994;23.372;2023-04-08T09:43:41;96592.50;;;11.19;87.92
10796;BME280;5450;42.994;23.372;2023-04-08T09:46:16;96506.72;;;10.86;86.75
10796;BME280;5450;42.994;23.372;2023-04-08T09:49:14;96580.66;;;11.31;85.97
10796;BME280;5450;42.994;23.372;2023-04-08T09:55:26;96572.13;;;11.29;83.01
10796;BME280;5450;42.994;23.372;2023-04-08T09:57:58;96562.28;;;11.39;85.80
10796;BME280;5450;42.994;23.372;2023-04-08T10:00:31;96493.59;;;11.02;83.17
10796;BME280;5450;42.994;23.372;2023-04-08T10:03:08;96577.38;;;11.77;81.73
10796;BME280;5450;42.994;23.372;2023-04-08T10:05:40;96516.16;;;11.59;78.33
10796;BME280;5450;42.994;23.372;2023-04-08T10:08:09;96503.66;;;11.61;76.70
10796;BME280;5450;42.994;23.372;2023-04-08T10:10:39;96549.28;;;12.08;76.25
10796;BME280;5450;42.994;23.372;2023-04-08T10:13:07;96550.31;;;12.38;79.43
10796;BME280;5450;42.994;23.372;2023-04-08T10:15:36;96536.69;;;12.27;77.41
10796;BME280;5450;42.994;23.372;2023-04-08T10:18:32;96546.66;;;12.70;72.46
10796;BME280;5450;42.994;23.372;2023-04-08T10:21:01;96526.91;;;12.66;69.34
10796;BME280;5450;42.994;23.372;2023-04-08T10:23:53;96534.19;;;12.86;70.42
10796;BME280;5450;42.994;23.372;2023-04-08T10:26:31;96505.84;;;12.66;67.54
10796;BME280;5450;42.994;23.372;2023-04-08T10:32:06;96508.63;;;12.87;66.93
10796;BME280;5450;42.994;23.372;2023-04-08T10:34:50;96505.03;;;12.88;63.88
10796;BME280;5450;42.994;23.372;2023-04-08T10:37:18;96490.56;;;13.21;64.02
10796;BME280;5450;42.994;23.372;2023-04-08T10:39:48;96461.97;;;12.73;63.86
10796;BME280;5450;42.994;23.372;2023-04-08T10:42:16;96404.22;;;12.78;67.58
10796;BME280;5450;42.994;23.372;2023-04-08T10:44:44;96490.72;;;13.42;67.89
10796;BME280;5450;42.994;23.372;2023-04-08T10:47:13;96476.41;;;13.51;62.71
10796;BME280;5450;42.994;23.372;2023-04-08T10:49:41;96509.09;;;13.50;63.33
10796;BME280;5450;42.994;23.372;2023-04-08T10:52:10;96434.72;;;13.32;60.50
10796;BME280;5450;42.994;23.372;2023-04-08T10:54:45;96473.91;;;13.73;63.29
10796;BME280;5450;42.994;23.372;2023-04-08T10:57:15;96475.06;;;13.70;66.70
10796;BME280;5450;42.994;23.372;2023-04-08T10:59:50;96436.19;;;13.49;67.14
10796;BME280;5450;42.994;23.372;2023-04-08T11:02:21;96469.16;;;13.83;66.47
10796;BME280;5450;42.994;23.372;2023-04-08T11:04:53;96430.38;;;13.68;64.39
10796;BME280;5450;42.994;23.372;2023-04-08T11:07:20;96452.84;;;13.79;62.89
10796;BME280;5450;42.994;23.372;2023-04-08T11:09:49;96372.31;;;13.39;61.76
10796;BME280;5450;42.994;23.372;2023-04-08T11:12:19;96464.97;;;14.24;60.98
10796;BME280;5450;42.994;23.372;2023-04-08T11:14:47;96452.75;;;14.23;63.59
10796;BME280;5450;42.994;23.372;2023-04-08T11:17:16;96427.03;;;13.96;58.43
10796;BME280;5450;42.994;23.372;2023-04-08T11:19:45;96406.25;;;13.57;55.64
10796;BME280;5450;42.994;23.372;2023-04-08T11:22:13;96354.94;;;13.16;53.62
10796;BME280;5450;42.994;23.372;2023-04-08T11:24:42;96418.25;;;13.45;62.20
10796;BME280;5450;42.994;23.372;2023-04-08T11:27:09;96373.22;;;13.17;54.96
10796;BME280;5450;42.994;23.372;2023-04-08T11:29:36;96412.00;;;13.31;56.58
10796;BME280;5450;42.994;23.372;2023-04-08T11:32:05;96398.78;;;13.60;62.10
10796;BME280;5450;42.994;23.372;2023-04-08T11:34:38;96387.91;;;13.85;59.43
10796;BME280;5450;42.994;23.372;2023-04-08T11:37:06;96424.97;;;14.27;52.05
10796;BME280;5450;42.994;23.372;2023-04-08T11:39:39;96361.41;;;14.14;55.30
10796;BME280;5450;42.994;23.372;2023-04-08T11:42:07;96364.00;;;14.07;52.07
10796;BME280;5450;42.994;23.372;2023-04-08T11:44:35;96385.47;;;14.61;54.52
10796;BME280;5450;42.994;23.372;2023-04-08T11:47:02;96329.09;;;14.33;54.63
10796;BME280;5450;42.994;23.372;2023-04-08T11:49:43;96382.13;;;15.01;54.29
10796;BME280;5450;42.994;23.372;2023-04-08T11:52:11;96376.22;;;14.99;55.26
10796;BME280;5450;42.994;23.372;2023-04-08T11:54:43;96369.72;;;14.74;50.92
10796;BME280;5450;42.994;23.372;2023-04-08T11:57:11;96375.78;;;14.47;46.01
10796;BME280;5450;42.994;23.372;2023-04-08T11:59:41;96389.59;;;14.28;46.70
10796;BME280;5450;42.994;23.372;2023-04-08T12:02:08;96368.25;;;14.08;51.38
10796;BME280;5450;42.994;23.372;2023-04-08T12:04:35;96396.63;;;14.21;50.97
10796;BME280;5450;42.994;23.372;2023-04-08T12:07:03;96388.56;;;14.08;52.87
10796;BME280;5450;42.994;23.372;2023-04-08T12:09:30;96361.41;;;13.42;54.48
10796;BME280;5450;42.994;23.372;2023-04-08T12:15:39;96361.34;;;13.72;62.41
10796;BME280;5450;42.994;23.372;2023-04-08T12:18:06;96410.88;;;13.69;67.66
10796;BME280;5450;42.994;23.372;2023-04-08T12:20:33;96301.03;;;12.66;69.55
10796;BME280;5450;42.994;23.372;2023-04-08T12:23:00;96382.50;;;13.13;70.88
10796;BME280;5450;42.994;23.372;2023-04-08T12:25:31;96408.59;;;13.08;73.27
10796;BME280;5450;42.994;23.372;2023-04-08T12:28:00;96346.72;;;12.22;76.15
10796;BME280;5450;42.994;23.372;2023-04-08T12:30:27;96362.94;;;12.10;78.08
10796;BME280;5450;42.994;23.372;2023-04-08T12:36:12;96363.38;;;11.91;83.09
10796;BME280;5450;42.994;23.372;2023-04-08T12:38:40;96384.19;;;11.78;85.62
10796;BME280;5450;42.994;23.372;2023-04-08T12:41:08;96391.13;;;11.63;85.98
10796;BME280;5450;42.994;23.372;2023-04-08T12:43:35;96400.03;;;11.62;87.20
10796;BME280;5450;42.994;23.372;2023-04-08T12:46:05;96437.44;;;11.50;87.00
10796;BME280;5450;42.994;23.372;2023-04-08T12:48:34;96408.63;;;11.48;87.01
10796;BME280;5450;42.994;23.372;2023-04-08T12:51:01;96409.16;;;11.43;86.82
10796;BME280;5450;42.994;23.372;2023-04-08T12:57:13;96378.56;;;10.88;87.35
10796;BME280;5450;42.994;23.372;2023-04-08T12:59:42;96391.56;;;10.81;86.48
10796;BME280;5450;42.994;23.372;2023-04-08T13:02:09;96481.06;;;11.12;86.28
10796;BME280;5450;42.994;23.372;2023-04-08T13:07:55;96438.06;;;10.89;88.31
10796;BME280;5450;42.994;23.372;2023-04-08T13:10:26;96467.63;;;10.91;89.77
10796;BME280;5450;42.994;23.372;2023-04-08T13:13:01;96383.88;;;10.31;92.85
10796;BME280;5450;42.994;23.372;2023-04-08T13:15:28;96378.38;;;9.92;94.07
10796;BME280;5450;42.994;23.372;2023-04-08T13:17:57;96436.72;;;10.28;100.00
10796;BME280;5450;42.994;23.372;2023-04-08T13:20:24;96498.16;;;10.59;100.00
10796;BME280;5450;42.994;23.372;2023-04-08T13:22:53;96413.53;;;10.16;100.00
10796;BME280;5450;42.994;23.372;2023-04-08T13:25:29;96475.56;;;10.09;100.00
10796;BME280;5450;42.994;23.372;2023-04-08T13:28:07;96415.06;;;9.27;100.00
10796;BME280;5450;42.994;23.372;2023-04-08T13:30:48;96505.22;;;10.01;100.00
10796;BME280;5450;42.994;23.372;2023-04-08T13:33:17;96491.78;;;10.04;100.00
10796;BME280;5450;42.994;23.372;2023-04-08T13:35:45;96514.50;;;10.13;100.00
10796;BME280;5450;42.994;23.372;2023-04-08T13:38:31;96469.78;;;10.05;100.00
10796;BME280;5450;42.994;23.372;2023-04-08T13:41:32;96508.59;;;10.19;100.00
10796;BME280;5450;42.994;23.372;2023-04-08T13:44:03;96516.44;;;10.11;100.00
10796;BME280;5450;42.994;23.372;2023-04-08T13:46:39;96401.28;;;9.25;100.00
10796;BME280;5450;42.994;23.372;2023-04-08T13:49:08;96491.75;;;9.96;100.00
10796;BME280;5450;42.994;23.372;2023-04-08T13:51:35;96416.81;;;9.18;100.00
10796;BME280;5450;42.994;23.372;2023-04-08T13:54:02;96511.47;;;9.66;100.00
10796;BME280;5450;42.994;23.372;2023-04-08T13:56:31;96474.22;;;9.03;100.00
10796;BME280;5450;42.994;23.372;2023-04-08T13:58:58;96500.59;;;8.84;100.00
10796;BME280;5450;42.994;23.372;2023-04-08T14:02:04;96529.25;;;9.03;100.00
10796;BME280;5450;42.994;23.372;2023-04-08T14:04:37;96513.81;;;8.75;100.00
10796;BME280;5450;42.994;23.372;2023-04-08T14:07:38;96517.31;;;8.83;100.00
10796;BME280;5450;42.994;23.372;2023-04-08T14:10:10;96474.31;;;8.51;100.00
10796;BME280;5450;42.994;23.372;2023-04-08T14:13:17;96513.94;;;8.91;100.00
10796;BME280;5450;42.994;23.372;2023-04-08T14:18:57;96472.13;;;8.46;100.00
10796;BME280;5450;42.994;23.372;2023-04-08T14:21:24;96527.69;;;8.93;100.00
10796;BME280;5450;42.994;23.372;2023-04-08T14:23:52;96494.03;;;8.80;100.00
10796;BME280;5450;42.994;23.372;2023-04-08T14:26:20;96511.88;;;8.59;100.00
10796;BME280;5450;42.994;23.372;2023-04-08T14:28:47;96512.38;;;8.80;100.00
10796;BME280;5450;42.994;23.372;2023-04-08T14:31:15;96503.13;;;8.68;100.00
10796;BME280;5450;42.994;23.372;2023-04-08T14:33:42;96526.13;;;8.82;100.00
10796;BME280;5450;42.994;23.372;2023-04-08T14:36:11;96490.97;;;8.67;100.00
10796;BME280;5450;42.994;23.372;2023-04-08T14:38:39;96504.75;;;8.69;100.00
10796;BME280;5450;42.994;23.372;2023-04-08T14:41:06;96448.84;;;8.25;100.00
10796;BME280;5450;42.994;23.372;2023-04-08T14:43:34;96451.81;;;8.13;100.00
10796;BME280;5450;42.994;23.372;2023-04-08T14:46:03;96526.59;;;8.60;100.00
10796;BME280;5450;42.994;23.372;2023-04-08T14:48:31;96517.78;;;8.61;100.00
10796;BME280;5450;42.994;23.372;2023-04-08T14:51:04;96510.19;;;8.40;100.00
10796;BME280;5450;42.994;23.372;2023-04-08T14:53:33;96513.25;;;8.36;100.00
10796;BME280;5450;42.994;23.372;2023-04-08T14:56:00;96535.78;;;8.64;100.00
10796;BME280;5450;42.994;23.372;2023-04-08T14:58:28;96422.13;;;7.87;100.00
10796;BME280;5450;42.994;23.372;2023-04-08T15:00:55;96451.88;;;8.21;100.00
10796;BME280;5450;42.994;23.372;2023-04-08T15:03:24;96481.28;;;8.15;100.00
10796;BME280;5450;42.994;23.372;2023-04-08T15:05:51;96502.72;;;8.46;100.00
10796;BME280;5450;42.994;23.372;2023-04-08T15:08:23;96427.13;;;7.80;100.00
10796;BME280;5450;42.994;23.372;2023-04-08T15:10:52;96550.38;;;8.49;100.00
10796;BME280;5450;42.994;23.372;2023-04-08T15:13:20;96517.78;;;8.61;100.00
10796;BME280;5450;42.994;23.372;2023-04-08T15:15:48;96470.03;;;8.32;100.00
10796;BME280;5450;42.994;23.372;2023-04-08T15:18:16;96499.38;;;8.53;100.00
10796;BME280;5450;42.994;23.372;2023-04-08T15:20:44;96525.84;;;8.68;100.00
10796;BME280;5450;42.994;23.372;2023-04-08T15:23:12;96523.91;;;8.52;100.00
10796;BME280;5450;42.994;23.372;2023-04-08T15:25:39;96516.94;;;8.61;100.00
10796;BME280;5450;42.994;23.372;2023-04-08T15:28:07;96519.94;;;8.66;100.00
10796;BME280;5450;42.994;23.372;2023-04-08T15:30:36;96521.13;;;8.71;100.00
10796;BME280;5450;42.994;23.372;2023-04-08T15:33:03;96515.81;;;8.63;100.00
10796;BME280;5450;42.994;23.372;2023-04-08T15:35:31;96514.47;;;8.59;100.00
10796;BME280;5450;42.994;23.372;2023-04-08T15:37:59;96532.50;;;8.62;100.00
10796;BME280;5450;42.994;23.372;2023-04-08T15:40:27;96519.63;;;8.51;100.00
10796;BME280;5450;42.994;23.372;2023-04-08T15:42:56;96497.78;;;8.43;100.00
10796;BME280;5450;42.994;23.372;2023-04-08T15:45:26;96520.16;;;8.55;100.00
10796;BME280;5450;42.994;23.372;2023-04-08T15:51:12;96505.63;;;8.43;100.00
10796;BME280;5450;42.994;23.372;2023-04-08T15:53:40;96489.03;;;8.34;100.00
10796;BME280;5450;42.994;23.372;2023-04-08T15:56:11;96522.56;;;8.48;100.00
10796;BME280;5450;42.994;23.372;2023-04-08T15:58:38;96494.25;;;8.34;100.00
10796;BME280;5450;42.994;23.372;2023-04-08T16:01:08;96513.72;;;8.49;100.00
10796;BME280;5450;42.994;23.372;2023-04-08T16:03:36;96518.59;;;8.44;100.00
10796;BME280;5450;42.994;23.372;2023-04-08T16:06:03;96525.84;;;8.50;100.00
10796;BME280;5450;42.994;23.372;2023-04-08T16:12:08;96513.50;;;8.60;100.00
10796;BME280;5450;42.994;23.372;2023-04-08T16:14:36;96510.31;;;8.66;100.00
10796;BME280;5450;42.994;23.372;2023-04-08T16:17:05;96513.44;;;8.52;100.00
10796;BME280;5450;42.994;23.372;2023-04-08T16:19:32;96521.06;;;8.63;100.00
10796;BME280;5450;42.994;23.372;2023-04-08T16:22:02;96522.84;;;8.45;100.00
10796;BME280;5450;42.994;23.372;2023-04-08T16:27:46;96522.38;;;8.32;100.00
10796;BME280;5450;42.994;23.372;2023-04-08T16:30:16;96463.50;;;7.74;100.00
10796;BME280;5450;42.994;23.372;2023-04-08T16:36:07;96540.59;;;8.33;100.00
10796;BME280;5450;42.994;23.372;2023-04-08T16:42:16;96529.56;;;8.30;100.00
10796;BME280;5450;42.994;23.372;2023-04-08T16:44:46;96476.03;;;7.97;100.00
10796;BME280;5450;42.994;23.372;2023-04-08T16:47:14;96543.75;;;8.27;100.00
10796;BME280;5450;42.994;23.372;2023-04-08T16:49:41;96440.25;;;7.43;100.00
10796;BME280;5450;42.994;23.372;2023-04-08T16:52:14;96509.59;;;8.02;100.00
10796;BME280;5450;42.994;23.372;2023-04-08T16:54:42;96509.66;;;7.92;100.00
10796;BME280;5450;42.994;23.372;2023-04-08T16:57:12;96526.09;;;8.12;100.00
10796;BME280;5450;42.994;23.372;2023-04-08T17:03:01;96523.91;;;8.07;100.00
10796;BME280;5450;42.994;23.372;2023-04-08T17:05:28;96497.84;;;7.88;100.00
10796;BME280;5450;42.994;23.372;2023-04-08T17:11:16;96550.94;;;7.98;100.00
10796;BME280;5450;42.994;23.372;2023-04-08T17:23:39;96556.69;;;8.02;100.00
10796;BME280;5450;42.994;23.372;2023-04-08T17:29:27;96557.56;;;8.20;100.00
10796;BME280;5450;42.994;23.372;2023-04-08T17:35:12;96574.97;;;8.11;100.00
10796;BME280;5450;42.994;23.372;2023-04-08T17:37:40;96563.09;;;7.90;100.00
10796;BME280;5450;42.994;23.372;2023-04-08T17:40:11;96580.91;;;8.04;100.00
10796;BME280;5450;42.994;23.372;2023-04-08T17:42:38;96583.03;;;7.91;100.00
10796;BME280;5450;42.994;23.372;2023-04-08T17:48:30;96600.22;;;8.03;100.00
10796;BME280;5450;42.994;23.372;2023-04-08T17:51:00;96576.84;;;7.92;100.00
10796;BME280;5450;42.994;23.372;2023-04-08T18:00:19;96586.88;;;7.59;100.00
10796;BME280;5450;42.994;23.372;2023-04-08T18:02:48;96607.97;;;7.95;100.00
10796;BME280;5450;42.994;23.372;2023-04-08T18:05:17;96617.06;;;7.91;100.00
10796;BME280;5450;42.994;23.372;2023-04-08T18:11:19;96610.19;;;7.90;100.00
10796;BME280;5450;42.994;23.372;2023-04-08T18:13:48;96626.84;;;7.89;100.00
10796;BME280;5450;42.994;23.372;2023-04-08T18:16:16;96617.09;;;7.81;100.00
10796;BME280;5450;42.994;23.372;2023-04-08T18:18:45;96527.25;;;7.26;100.00
10796;BME280;5450;42.994;23.372;2023-04-08T18:21:14;96622.88;;;7.85;100.00
10796;BME280;5450;42.994;23.372;2023-04-08T18:27:25;96634.84;;;7.78;100.00
10796;BME280;5450;42.994;23.372;2023-04-08T18:39:56;96565.78;;;7.34;100.00
10796;BME280;5450;42.994;23.372;2023-04-08T18:42:26;96615.81;;;7.48;100.00
10796;BME280;5450;42.994;23.372;2023-04-08T18:44:53;96605.63;;;7.55;100.00
10796;BME280;5450;42.994;23.372;2023-04-08T18:47:45;96650.94;;;7.92;100.00
10796;BME280;5450;42.994;23.372;2023-04-08T18:50:15;96654.94;;;7.87;100.00
10796;BME280;5450;42.994;23.372;2023-04-08T18:52:43;96655.06;;;7.95;100.00
10796;BME280;5450;42.994;23.372;2023-04-08T18:55:12;96668.53;;;8.00;100.00
10796;BME280;5450;42.994;23.372;2023-04-08T18:58:04;96664.97;;;7.91;100.00
10796;BME280;5450;42.994;23.372;2023-04-08T19:00:32;96665.13;;;7.90;100.00
10796;BME280;5450;42.994;23.372;2023-04-08T19:03:04;96671.72;;;7.94;100.00
10796;BME280;5450;42.994;23.372;2023-04-08T19:05:31;96551.66;;;6.98;100.00
10796;BME280;5450;42.994;23.372;2023-04-08T19:08:03;96668.31;;;7.84;100.00
10796;BME280;5450;42.994;23.372;2023-04-08T19:10:32;96589.16;;;7.35;100.00
10796;BME280;5450;42.994;23.372;2023-04-08T19:16:22;96677.44;;;7.60;100.00
10796;BME280;5450;42.994;23.372;2023-04-08T19:18:50;96676.63;;;7.50;100.00
10796;BME280;5450;42.994;23.372;2023-04-08T19:21:17;96651.16;;;7.43;100.00
10796;BME280;5450;42.994;23.372;2023-04-08T19:27:04;96685.66;;;7.85;100.00
10796;BME280;5450;42.994;23.372;2023-04-08T19:36:13;96676.75;;;7.58;100.00
10796;BME280;5450;42.994;23.372;2023-04-08T19:38:44;96710.88;;;7.57;100.00
10796;BME280;5450;42.994;23.372;2023-04-08T19:41:11;96669.50;;;7.33;100.00
10796;BME280;5450;42.994;23.372;2023-04-08T19:47:14;96679.38;;;7.39;100.00
10796;BME280;5450;42.994;23.372;2023-04-08T19:53:06;96687.34;;;7.67;100.00
10796;BME280;5450;42.994;23.372;2023-04-08T19:59:09;96690.47;;;7.80;100.00
10796;BME280;5450;42.994;23.372;2023-04-08T20:01:37;96612.78;;;7.43;100.00
10796;BME280;5450;42.994;23.372;2023-04-08T20:07:42;96690.81;;;8.04;100.00
10796;BME280;5450;42.994;23.372;2023-04-08T20:17:17;96670.56;;;7.50;100.00
10796;BME280;5450;42.994;23.372;2023-04-08T20:30:13;96637.88;;;7.08;100.00
10796;BME280;5450;42.994;23.372;2023-04-08T20:36:14;96636.06;;;7.08;100.00
10796;BME280;5450;42.994;23.372;2023-04-08T20:42:41;96692.59;;;7.67;100.00
10796;BME280;5450;42.994;23.372;2023-04-08T20:48:47;96639.59;;;7.45;100.00
10796;BME280;5450;42.994;23.372;2023-04-08T20:51:14;96698.50;;;7.69;100.00
10796;BME280;5450;42.994;23.372;2023-04-08T20:54:07;96687.06;;;7.79;100.00
10796;BME280;5450;42.994;23.372;2023-04-08T20:56:34;96629.31;;;7.34;100.00
10796;BME280;5450;42.994;23.372;2023-04-08T21:06:35;96698.22;;;7.52;100.00
10796;BME280;5450;42.994;23.372;2023-04-08T21:12:38;96667.56;;;7.35;100.00
10796;BME280;5450;42.994;23.372;2023-04-08T21:22:02;96693.38;;;7.77;100.00
10796;BME280;5450;42.994;23.372;2023-04-08T21:24:55;96690.88;;;7.85;100.00
10796;BME280;5450;42.994;23.372;2023-04-08T21:27:22;96713.06;;;7.81;100.00
10796;BME280;5450;42.994;23.372;2023-04-08T21:29:50;96537.22;;;6.94;100.00
10796;BME280;5450;42.994;23.372;2023-04-08T21:32:18;96638.13;;;7.33;100.00
10796;BME280;5450;42.994;23.372;2023-04-08T21:34:45;96640.03;;;7.22;100.00
10796;BME280;5450;42.994;23.372;2023-04-08T21:37:14;96680.63;;;7.35;100.00
10796;BME280;5450;42.994;23.372;2023-04-08T21:54:01;96686.94;;;7.52;100.00
10796;BME280;5450;42.994;23.372;2023-04-08T21:56:42;96657.34;;;7.51;100.00
10796;BME280;5450;42.994;23.372;2023-04-08T22:06:18;96653.81;;;7.33;100.00
10796;BME280;5450;42.994;23.372;2023-04-08T22:08:45;96630.97;;;7.35;100.00
10796;BME280;5450;42.994;23.372;2023-04-08T22:18:25;96692.03;;;7.63;100.00
10796;BME280;5450;42.994;23.372;2023-04-08T22:38:59;96621.88;;;7.49;100.00
10796;BME280;5450;42.994;23.372;2023-04-08T22:45:03;96590.97;;;7.16;100.00
10796;BME280;5450;42.994;23.372;2023-04-08T22:47:32;96495.75;;;6.53;100.00
10796;BME280;5450;42.994;23.372;2023-04-08T22:50:25;96670.41;;;7.51;100.00
10796;BME280;5450;42.994;23.372;2023-04-08T22:56:29;96555.75;;;6.43;100.00
10796;BME280;5450;42.994;23.372;2023-04-08T23:02:31;96491.06;;;6.08;100.00
10796;BME280;5450;42.994;23.372;2023-04-08T23:04:58;96513.31;;;6.13;100.00
10796;BME280;5450;42.994;23.372;2023-04-08T23:07:25;96515.91;;;6.13;100.00
10796;BME280;5450;42.994;23.372;2023-04-08T23:09:52;96571.84;;;6.67;100.00